sensor_id;sensor_type;location;lat;lon;timestamp;pressure;altitude;pressure_sealevel;temperature;humidity
32330;BME280;18807;52.434;13.238;2023-02-12T00:01:00;102941.31;;;6.13;100.00
32330;BME280;18807;52.434;13.238;2023-02-12T00:08:34;102956.19;;;6.11;100.00
32330;BME280;18807;52.434;13.238;2023-02-12T00:16:12;102964.78;;;6.07;100.00
32330;BME280;18807;52.434;13.238;2023-02-12T00:23:46;102969.25;;;6.08;100.00
32330;BME280;18807;52.434;13.238;2023-02-12T00:31:23;102966.28;;;6.04;100.00
32330;BME280;18807;52.434;13.238;2023-02-12T00:38:59;102978.44;;;6.00;100.00
32330;BME280;18807;52.434;13.238;2023-02-12T00:46:34;102975.69;;;5.99;100.00
32330;BME280;18807;52.434;13.238;2023-02-12T00:54:08;102990.56;;;5.97;100.00
32330;BME280;18807;52.434;13.238;2023-02-12T01:01:44;102998.31;;;5.94;100.00
32330;BME280;18807;52.434;13.238;2023-02-12T01:09:18;103003.72;;;5.95;100.00
32330;BME280;18807;52.434;13.238;2023-02-12T01:16:53;103000.03;;;5.93;100.00
32330;BME280;18807;52.434;13.238;2023-02-12T01:24:27;103010.63;;;5.93;100.00
32330;BME280;18807;52.434;13.238;2023-02-12T01:32:03;103010.41;;;5.90;100.00
32330;BME280;18807;52.434;13.238;2023-02-12T01:39:37;103019.09;;;5.88;100.00
32330;BME280;18807;52.434;13.238;2023-02-12T01:47:16;103019.19;;;5.89;100.00
32330;BME280;18807;52.434;13.238;2023-02-12T01:54:52;103023.28;;;5.84;100.00
32330;BME280;18807;52.434;13.238;2023-02-12T02:02:30;103025.84;;;5.83;100.00
32330;BME280;18807;52.434;13.238;2023-02-12T02:10:06;103038.97;;;5.81;100.00
32330;BME280;18807;52.434;13.238;2023-02-12T02:17:48;103034.44;;;5.80;100.00
32330;BME280;18807;52.434;13.238;2023-02-12T02:25:52;103032.59;;;5.79;100.00
32330;BME280;18807;52.434;13.238;2023-02-12T02:33:36;103030.88;;;5.80;100.00
32330;BME280;18807;52.434;13.238;2023-02-12T02:41:16;103032.59;;;5.79;100.00
32330;BME280;18807;52.434;13.238;2023-02-12T02:48:59;103030.88;;;5.80;100.00
32330;BME280;18807;52.434;13.238;2023-02-12T02:56:37;103043.22;;;5.79;100.00
32330;BME280;18807;52.434;13.238;2023-02-12T03:04:17;103051.06;;;5.78;100.00
32330;BME280;18807;52.434;13.238;2023-02-12T03:11:55;103053.81;;;5.79;100.00
32330;BME280;18807;52.434;13.238;2023-02-12T03:19:36;103060.84;;;5.79;100.00
32330;BME280;18807;52.434;13.238;2023-02-12T03:27:16;103068.16;;;5.81;100.00
32330;BME280;18807;52.434;13.238;2023-02-12T03:35:01;103083.09;;;5.81;100.00
32330;BME280;18807;52.434;13.238;2023-02-12T03:42:45;103079.41;;;5.79;100.00
32330;BME280;18807;52.434;13.238;2023-02-12T03:50:26;103088.19;;;5.78;100.00
32330;BME280;18807;52.434;13.238;2023-02-12T03:58:07;103092.34;;;5.74;100.00
32330;BME280;18807;52.434;13.238;2023-02-12T04:05:43;103097.41;;;5.71;100.00
32330;BME280;18807;52.434;13.238;2023-02-12T04:13:22;103105.97;;;5.67;100.00
32330;BME280;18807;52.434;13.238;2023-02-12T04:21:03;103105.75;;;5.64;100.00
32330;BME280;18807;52.434;13.238;2023-02-12T04:28:45;103118.91;;;5.63;100.00
32330;BME280;18807;52.434;13.238;2023-02-12T04:36:24;103118.91;;;5.63;100.00
32330;BME280;18807;52.434;13.238;2023-02-12T04:44:12;103113.47;;;5.61;100.00
32330;BME280;18807;52.434;13.238;2023-02-12T04:51:48;103111.75;;;5.62;100.00
32330;BME280;18807;52.434;13.238;2023-02-12T04:59:22;103120.50;;;5.61;100.00
32330;BME280;18807;52.434;13.238;2023-02-12T05:06:58;103123.63;;;5.55;100.00
32330;BME280;18807;52.434;13.238;2023-02-12T05:14:32;103113.19;;;5.45;100.00
32330;BME280;18807;52.434;13.238;2023-02-12T05:22:07;103130.13;;;5.47;100.00
32330;BME280;18807;52.434;13.238;2023-02-12T05:29:41;103131.75;;;5.45;100.00
32330;BME280;18807;52.434;13.238;2023-02-12T05:37:16;103133.81;;;5.38;100.00
32330;BME280;18807;52.434;13.238;2023-02-12T05:44:50;103137.84;;;5.33;100.00
32330;BME280;18807;52.434;13.238;2023-02-12T05:52:25;103144.56;;;5.28;100.00
32330;BME280;18807;52.434;13.238;2023-02-12T05:59:59;103158.59;;;5.27;100.00
32330;BME280;18807;52.434;13.238;2023-02-12T06:07:34;103153.06;;;5.24;100.00
32330;BME280;18807;52.434;13.238;2023-02-12T06:15:08;103160.66;;;5.19;100.00
32330;BME280;18807;52.434;13.238;2023-02-12T06:22:43;103168.72;;;5.21;100.00
32330;BME280;18807;52.434;13.238;2023-02-12T06:30:18;103177.38;;;5.18;100.00
32330;BME280;18807;52.434;13.238;2023-02-12T06:37:53;103198.09;;;5.24;100.00
32330;BME280;18807;52.434;13.238;2023-02-12T06:45:27;103200.88;;;5.25;100.00
32330;BME280;18807;52.434;13.238;2023-02-12T06:53:03;103205.16;;;5.23;100.00
32330;BME280;18807;52.434;13.238;2023-02-12T07:00:37;103216.88;;;5.27;100.00
32330;BME280;18807;52.434;13.238;2023-02-12T07:08:12;103227.47;;;5.27;100.00
32330;BME280;18807;52.434;13.238;2023-02-12T07:15:46;103227.72;;;5.30;100.00
32330;BME280;18807;52.434;13.238;2023-02-12T07:23:21;103234.06;;;5.32;100.00
32330;BME280;18807;52.434;13.238;2023-02-12T07:30:55;103233.81;;;5.40;100.00
32330;BME280;18807;52.434;13.238;2023-02-12T07:38:31;103246.28;;;5.41;100.00
32330;BME280;18807;52.434;13.238;2023-02-12T07:46:09;103254.59;;;5.46;100.00
32330;BME280;18807;52.434;13.238;2023-02-12T07:53:46;103246.28;;;5.53;100.00
32330;BME280;18807;52.434;13.238;2023-02-12T08:01:22;103252.38;;;5.63;100.00
32330;BME280;18807;52.434;13.238;2023-02-12T08:09:00;103268.53;;;5.66;100.00
32330;BME280;18807;52.434;13.238;2023-02-12T08:16:36;103271.41;;;5.69;100.00
32330;BME280;18807;52.434;13.238;2023-02-12T08:24:12;103285.13;;;5.75;100.00
32330;BME280;18807;52.434;13.238;2023-02-12T08:31:47;103291.94;;;5.83;100.00
32330;BME280;18807;52.434;13.238;2023-02-12T08:39:24;103300.22;;;5.88;100.00
32330;BME280;18807;52.434;13.238;2023-02-12T08:46:58;103308.75;;;5.95;100.00
32330;BME280;18807;52.434;13.238;2023-02-12T08:54:35;103318.34;;;6.05;100.00
32330;BME280;18807;52.434;13.238;2023-02-12T09:02:09;103314.16;;;6.08;100.00
32330;BME280;18807;52.434;13.238;2023-02-12T09:09:44;103318.06;;;6.13;100.00
32330;BME280;18807;52.434;13.238;2023-02-12T09:17:18;103334.69;;;6.23;100.00
32330;BME280;18807;52.434;13.238;2023-02-12T09:24:54;103337.78;;;6.29;100.00
32330;BME280;18807;52.434;13.238;2023-02-12T09:32:28;103339.13;;;6.35;100.00
32330;BME280;18807;52.434;13.238;2023-02-12T09:40:05;103343.16;;;6.42;100.00
32330;BME280;18807;52.434;13.238;2023-02-12T09:47:43;103352.75;;;6.51;100.00
32330;BME280;18807;52.434;13.238;2023-02-12T09:55:24;103349.09;;;6.62;100.00
32330;BME280;18807;52.434;13.238;2023-02-12T10:03:01;103358.78;;;6.73;100.00
32330;BME280;18807;52.434;13.238;2023-02-12T10:10:48;103355.53;;;6.77;100.00
32330;BME280;18807;52.434;13.238;2023-02-12T10:18:41;103361.28;;;6.83;100.00
32330;BME280;18807;52.434;13.238;2023-02-12T10:26:23;103360.66;;;6.87;100.00
32330;BME280;18807;52.434;13.238;2023-02-12T10:33:59;103363.53;;;6.90;100.00
32330;BME280;18807;52.434;13.238;2023-02-12T10:41:39;103355.78;;;6.93;100.00
32330;BME280;18807;52.434;13.238;2023-02-12T10:49:16;103359.50;;;6.95;100.00
32330;BME280;18807;52.434;13.238;2023-02-12T10:56:53;103355.19;;;6.97;100.00
32330;BME280;18807;52.434;13.238;2023-02-12T11:04:28;103351.25;;;7.04;100.00
32330;BME280;18807;52.434;13.238;2023-02-12T11:12:16;103351.69;;;7.10;100.00
32330;BME280;18807;52.434;13.238;2023-02-12T11:20:18;103352.72;;;7.12;100.00
32330;BME280;18807;52.434;13.238;2023-02-12T11:28:04;103342.66;;;7.08;100.00
32330;BME280;18807;52.434;13.238;2023-02-12T11:35:48;103349.00;;;7.10;100.00
32330;BME280;18807;52.434;13.238;2023-02-12T11:43:23;103357.00;;;7.10;100.00
32330;BME280;18807;52.434;13.238;2023-02-12T11:51:00;103348.28;;;7.12;100.00
32330;BME280;18807;52.434;13.238;2023-02-12T11:58:37;103343.31;;;7.17;100.00
32330;BME280;18807;52.434;13.238;2023-02-12T12:06:24;103336.16;;;7.16;100.00
32330;BME280;18807;52.434;13.238;2023-02-12T12:14:06;103327.00;;;7.24;100.00
32330;BME280;18807;52.434;13.238;2023-02-12T12:21:46;103327.31;;;7.28;100.00
32330;BME280;18807;52.434;13.238;2023-02-12T12:29:29;103328.63;;;7.35;100.00
32330;BME280;18807;52.434;13.238;2023-02-12T12:37:21;103307.06;;;7.43;100.00
32330;BME280;18807;52.434;13.238;2023-02-12T12:45:12;103298.91;;;7.53;100.00
32330;BME280;18807;52.434;13.238;2023-02-12T12:53:11;103300.34;;;7.61;100.00
32330;BME280;18807;52.434;13.238;2023-02-12T13:01:00;103287.34;;;7.66;100.00
32330;BME280;18807;52.434;13.238;2023-02-12T13:08:51;103301.69;;;7.81;100.00
32330;BME280;18807;52.434;13.238;2023-02-12T13:16:36;103304.75;;;7.87;100.00
32330;BME280;18807;52.434;13.238;2023-02-12T13:24:21;103302.81;;;7.84;100.00
32330;BME280;18807;52.434;13.238;2023-02-12T13:32:03;103302.09;;;7.87;100.00
32330;BME280;18807;52.434;13.238;2023-02-12T13:39:40;103291.75;;;7.91;100.00
32330;BME280;18807;52.434;13.238;2023-02-12T13:47:22;103291.41;;;8.00;100.00
32330;BME280;18807;52.434;13.238;2023-02-12T13:55:13;103282.84;;;8.04;100.00
32330;BME280;18807;52.434;13.238;2023-02-12T14:02:54;103288.25;;;8.05;100.00
32330;BME280;18807;52.434;13.238;2023-02-12T14:10:31;103277.19;;;8.12;100.00
32330;BME280;18807;52.434;13.238;2023-02-12T14:18:36;103274.72;;;8.15;100.00
32330;BME280;18807;52.434;13.238;2023-02-12T14:26:11;103284.13;;;8.10;100.00
32330;BME280;18807;52.434;13.238;2023-02-12T14:33:49;103289.56;;;8.12;100.00
32330;BME280;18807;52.434;13.238;2023-02-12T14:41:24;103289.47;;;8.24;100.00
32330;BME280;18807;52.434;13.238;2023-02-12T14:49:19;103275.66;;;8.29;100.00
32330;BME280;18807;52.434;13.238;2023-02-12T14:56:58;103287.56;;;8.49;100.00
32330;BME280;18807;52.434;13.238;2023-02-12T15:04:37;103279.34;;;8.59;100.00
32330;BME280;18807;52.434;13.238;2023-02-12T15:12:16;103276.50;;;8.56;100.00
32330;BME280;18807;52.434;13.238;2023-02-12T15:19:56;103276.78;;;8.47;100.00
32330;BME280;18807;52.434;13.238;2023-02-12T15:27:33;103280.09;;;8.43;100.00
32330;BME280;18807;52.434;13.238;2023-02-12T15:35:24;103288.00;;;8.42;100.00
32330;BME280;18807;52.434;13.238;2023-02-12T15:43:01;103289.56;;;8.38;100.00
32330;BME280;18807;52.434;13.238;2023-02-12T15:50:45;103288.44;;;8.35;100.00
32330;BME280;18807;52.434;13.238;2023-02-12T15:58:22;103311.06;;;8.28;100.00
32330;BME280;18807;52.434;13.238;2023-02-12T16:06:02;103319.78;;;8.26;100.00
32330;BME280;18807;52.434;13.238;2023-02-12T16:13:39;103315.84;;;8.20;100.00
32330;BME280;18807;52.434;13.238;2023-02-12T16:21:18;103323.63;;;8.17;100.00
32330;BME280;18807;52.434;13.238;2023-02-12T16:28:55;103327.97;;;8.15;100.00
32330;BME280;18807;52.434;13.238;2023-02-12T16:36:31;103336.66;;;8.13;100.00
32330;BME280;18807;52.434;13.238;2023-02-12T16:44:24;103340.03;;;8.10;100.00
32330;BME280;18807;52.434;13.238;2023-02-12T16:52:33;103340.66;;;8.06;100.00
32330;BME280;18807;52.434;13.238;2023-02-12T17:00:15;103334.00;;;8.00;100.00
32330;BME280;18807;52.434;13.238;2023-02-12T17:07:51;103347.31;;;8.00;100.00
32330;BME280;18807;52.434;13.238;2023-02-12T17:15:28;103341.69;;;7.95;100.00
32330;BME280;18807;52.434;13.238;2023-02-12T17:23:05;103359.22;;;7.92;100.00
32330;BME280;18807;52.434;13.238;2023-02-12T17:30:39;103358.16;;;7.90;100.00
32330;BME280;18807;52.434;13.238;2023-02-12T17:38:15;103365.22;;;7.89;100.00
32330;BME280;18807;52.434;13.238;2023-02-12T17:45:49;103358.06;;;7.88;100.00
32330;BME280;18807;52.434;13.238;2023-02-12T17:53:26;103359.47;;;7.83;100.00
32330;BME280;18807;52.434;13.238;2023-02-12T18:01:03;103364.81;;;7.83;100.00
32330;BME280;18807;52.434;13.238;2023-02-12T18:08:39;103366.47;;;7.81;100.00
32330;BME280;18807;52.434;13.238;2023-02-12T18:16:13;103372.47;;;7.79;100.00
32330;BME280;18807;52.434;13.238;2023-02-12T18:23:49;103361.84;;;7.79;100.00
32330;BME280;18807;52.434;13.238;2023-02-12T18:31:23;103373.31;;;7.78;100.00
32330;BME280;18807;52.434;13.238;2023-02-12T18:38:58;103365.63;;;7.69;100.00
32330;BME280;18807;52.434;13.238;2023-02-12T18:46:33;103373.41;;;7.66;100.00
32330;BME280;18807;52.434;13.238;2023-02-12T18:54:10;103365.22;;;7.63;100.00
32330;BME280;18807;52.434;13.238;2023-02-12T19:01:46;103363.38;;;7.62;100.00
32330;BME280;18807;52.434;13.238;2023-02-12T19:09:24;103365.00;;;7.60;100.00
32330;BME280;18807;52.434;13.238;2023-02-12T19:16:58;103365.31;;;7.65;100.00
32330;BME280;18807;52.434;13.238;2023-02-12T19:24:34;103360.22;;;7.68;100.00
32330;BME280;18807;52.434;13.238;2023-02-12T19:32:18;103371.69;;;7.67;100.00
32330;BME280;18807;52.434;13.238;2023-02-12T19:39:53;103363.59;;;7.65;100.00
32330;BME280;18807;52.434;13.238;2023-02-12T19:47:27;103360.81;;;7.64;100.00
32330;BME280;18807;52.434;13.238;2023-02-12T19:55:03;103361.63;;;7.63;100.00
32330;BME280;18807;52.434;13.238;2023-02-12T20:02:37;103353.53;;;7.61;100.00
32330;BME280;18807;52.434;13.238;2023-02-12T20:10:16;103355.28;;;7.61;100.00
32330;BME280;18807;52.434;13.238;2023-02-12T20:17:51;103353.53;;;7.61;100.00
32330;BME280;18807;52.434;13.238;2023-02-12T20:25:26;103358.53;;;7.57;100.00
32330;BME280;18807;52.434;13.238;2023-02-12T20:33:02;103358.53;;;7.57;100.00
32330;BME280;18807;52.434;13.238;2023-02-12T20:40:37;103357.63;;;7.56;100.00
32330;BME280;18807;52.434;13.238;2023-02-12T20:48:11;103353.22;;;7.57;100.00
32330;BME280;18807;52.434;13.238;2023-02-12T20:55:46;103352.31;;;7.56;100.00
32330;BME280;18807;52.434;13.238;2023-02-12T21:03:20;103340.84;;;7.57;100.00
32330;BME280;18807;52.434;13.238;2023-02-12T21:11:03;103339.13;;;7.58;100.00
32330;BME280;18807;52.434;13.238;2023-02-12T21:18:37;103340.63;;;7.54;100.00
32330;BME280;18807;52.434;13.238;2023-02-12T21:26:15;103341.78;;;7.58;100.00
32330;BME280;18807;52.434;13.238;2023-02-12T21:33:51;103339.81;;;7.55;100.00
32330;BME280;18807;52.434;13.238;2023-02-12T21:41:28;103339.03;;;7.56;100.00
32330;BME280;18807;52.434;13.238;2023-02-12T21:49:03;103339.72;;;7.54;100.00
32330;BME280;18807;52.434;13.238;2023-02-12T21:56:40;103339.13;;;7.58;100.00
32330;BME280;18807;52.434;13.238;2023-02-12T22:04:15;103338.91;;;7.55;100.00
32330;BME280;18807;52.434;13.238;2023-02-12T22:11:51;103329.06;;;7.54;100.00
32330;BME280;18807;52.434;13.238;2023-02-12T22:19:25;103331.03;;;7.56;100.00
32330;BME280;18807;52.434;13.238;2023-02-12T22:27:01;103330.84;;;7.53;100.00
32330;BME280;18807;52.434;13.238;2023-02-12T22:34:35;103332.66;;;7.54;100.00
32330;BME280;18807;52.434;13.238;2023-02-12T22:42:10;103334.28;;;7.52;100.00
32330;BME280;18807;52.434;13.238;2023-02-12T22:49:44;103334.28;;;7.52;100.00
32330;BME280;18807;52.434;13.238;2023-02-12T22:57:20;103344.81;;;7.51;100.00
32330;BME280;18807;52.434;13.238;2023-02-12T23:04:53;103346.47;;;7.49;100.00
32330;BME280;18807;52.434;13.238;2023-02-12T23:12:29;103342.78;;;7.47;100.00
32330;BME280;18807;52.434;13.238;2023-02-12T23:20:03;103334.59;;;7.44;100.00
32330;BME280;18807;52.434;13.238;2023-02-12T23:27:39;103333.66;;;7.43;100.00
32330;BME280;18807;52.434;13.238;2023-02-12T23:35:13;103331.72;;;7.41;100.00
32330;BME280;18807;52.434;13.238;2023-02-12T23:42:48;103334.28;;;7.39;100.00
32330;BME280;18807;52.434;13.238;2023-02-12T23:50:22;103326.19;;;7.38;100.00
32330;BME280;18807;52.434;13.238;2023-02-12T23:57:57;103330.69;;;7.39;100.00
